createdAt,value
2023-01-29T00:02:09.978Z,86.78
2023-01-29T00:05:16.725Z,86.66
2023-01-29T00:08:15.117Z,86.89
2023-01-29T00:11:10.236Z,86.83
2023-01-29T00:14:03.382Z,86.62
2023-01-29T00:16:56.447Z,86.54
2023-01-29T00:19:49.339Z,86.70
2023-01-29T00:22:42.113Z,86.64
2023-01-29T00:25:34.927Z,86.75
2023-01-29T00:28:26.397Z,86.76
2023-01-29T00:31:22.170Z,86.77
2023-01-29T00:34:15.072Z,86.42
2023-01-29T00:37:09.732Z,86.34
2023-01-29T00:40:02.550Z,86.26
2023-01-29T00:43:06.223Z,86.22
2023-01-29T00:45:58.957Z,85.89
2023-01-29T00:48:52.229Z,85.53
2023-01-29T00:52:05.052Z,85.50
2023-01-29T00:54:59.663Z,85.78
2023-01-29T00:57:53.635Z,86.19
2023-01-29T01:00:46.397Z,86.19
2023-01-29T01:03:42.245Z,86.48
2023-01-29T01:06:34.617Z,86.39
2023-01-29T01:09:45.957Z,86.40
2023-01-29T01:12:40.169Z,86.11
2023-01-29T01:15:36.601Z,86.20
2023-01-29T01:18:32.475Z,85.94
2023-01-29T01:21:25.235Z,85.83
2023-01-29T01:24:18.063Z,85.63
2023-01-29T01:27:03.991Z,85.26
2023-01-29T01:29:58.002Z,85.26
2023-01-29T01:32:50.984Z,85.19
2023-01-29T01:35:44.475Z,85.26
2023-01-29T01:38:37.397Z,85.47
2023-01-29T01:41:23.119Z,85.73
2023-01-29T01:44:45.948Z,85.80
2023-01-29T01:47:46.407Z,85.53
2023-01-29T01:50:37.507Z,85.91
2023-01-29T01:53:30.864Z,85.43
2023-01-29T01:56:29.297Z,85.11
2023-01-29T01:59:23.987Z,85.21
2023-01-29T02:02:34.873Z,85.26
2023-01-29T02:05:46.064Z,85.50
2023-01-29T02:08:50.555Z,85.47
2023-01-29T02:11:43.396Z,85.86
2023-01-29T02:14:40.264Z,85.99
2023-01-29T02:17:33.569Z,86.02
2023-01-29T02:20:28.253Z,86.43
2023-01-29T02:23:41.101Z,86.40
2023-01-29T02:26:56.947Z,86.52
2023-01-29T02:30:03.478Z,86.39
2023-01-29T02:33:07.631Z,86.18
2023-01-29T02:36:10.736Z,86.11
2023-01-29T02:39:14.015Z,86.18
2023-01-29T02:42:18.675Z,86.07
2023-01-29T02:45:15.356Z,85.67
2023-01-29T02:48:13.487Z,86.07
2023-01-29T02:51:07.311Z,85.59
2023-01-29T02:54:04.680Z,85.69
2023-01-29T02:57:00.816Z,85.67
2023-01-29T02:59:57.165Z,85.92
2023-01-29T03:02:49.354Z,85.97
2023-01-29T03:05:51.185Z,86.14
2023-01-29T03:08:45.751Z,86.49
2023-01-29T03:11:42.746Z,86.32
2023-01-29T03:14:54.290Z,86.18
2023-01-29T03:17:52.649Z,86.06
2023-01-29T03:20:49.333Z,85.41
2023-01-29T03:24:00.665Z,84.33
2023-01-29T03:27:11.645Z,83.65
2023-01-29T03:30:23.834Z,83.55
2023-01-29T03:33:17.407Z,83.77
2023-01-29T03:36:16.412Z,84.22
2023-01-29T03:39:11.573Z,84.32
2023-01-29T03:42:14.135Z,84.63
2023-01-29T03:45:05.478Z,84.72
2023-01-29T03:48:08.012Z,84.94
2023-01-29T03:51:10.190Z,85.11
2023-01-29T03:54:11.154Z,85.19
2023-01-29T03:57:15.553Z,85.17
2023-01-29T04:00:17.509Z,85.28
2023-01-29T04:03:18.379Z,85.53
2023-01-29T04:06:11.124Z,86.00
2023-01-29T04:09:09.356Z,86.00
2023-01-29T04:12:02.217Z,86.07
2023-01-29T04:14:56.419Z,85.95
2023-01-29T04:17:41.145Z,86.00
2023-01-29T04:20:38.578Z,86.11
2023-01-29T04:23:33.291Z,86.22
2023-01-29T04:26:57.309Z,86.31
2023-01-29T04:30:04.603Z,86.31
2023-01-29T04:33:11.837Z,86.14
2023-01-29T04:36:01.587Z,85.78
2023-01-29T04:39:12.016Z,85.86
2023-01-29T04:42:12.335Z,85.62
2023-01-29T04:45:07.463Z,85.00
2023-01-29T04:48:14.199Z,85.04
2023-01-29T04:51:13.851Z,84.62
2023-01-29T04:54:13.780Z,84.99
2023-01-29T04:57:09.696Z,84.91
2023-01-29T05:00:08.623Z,85.18
2023-01-29T05:03:02.973Z,84.92
2023-01-29T05:05:59.356Z,84.24
2023-01-29T05:08:53.782Z,83.68
2023-01-29T05:11:39.989Z,83.99
2023-01-29T05:14:35.425Z,84.27
2023-01-29T05:17:28.460Z,83.87
2023-01-29T05:20:21.921Z,83.45
2023-01-29T05:23:20.475Z,83.66
2023-01-29T05:26:25.587Z,83.54
2023-01-29T05:29:18.478Z,82.39
2023-01-29T05:32:11.234Z,81.79
2023-01-29T05:35:04.314Z,82.41
2023-01-29T05:37:57.672Z,82.74
2023-01-29T05:40:45.489Z,83.14
2023-01-29T05:43:38.247Z,83.21
2023-01-29T05:46:31.686Z,83.23
2023-01-29T05:49:25.185Z,83.30
2023-01-29T05:52:18.495Z,83.19
2023-01-29T05:55:12.783Z,83.07
2023-01-29T05:58:06.282Z,82.99
2023-01-29T06:00:52.699Z,83.03
2023-01-29T06:03:46.469Z,83.25
2023-01-29T06:06:39.237Z,82.94
2023-01-29T06:09:32.318Z,82.75
2023-01-29T06:12:25.093Z,82.44
2023-01-29T06:15:12.588Z,82.26
2023-01-29T06:18:05.425Z,82.34
2023-01-29T06:21:03.788Z,81.90
2023-01-29T06:23:56.986Z,81.77
2023-01-29T06:26:50.041Z,81.66
2023-01-29T06:29:42.819Z,81.18
2023-01-29T06:32:37.280Z,81.09
2023-01-29T06:35:30.111Z,80.89
2023-01-29T06:38:22.973Z,80.75
2023-01-29T06:41:17.287Z,80.61
2023-01-29T06:44:10.270Z,80.38
2023-01-29T06:47:03.378Z,80.23
2023-01-29T06:49:56.526Z,79.83
2023-01-29T06:52:47.967Z,79.77
2023-01-29T06:55:40.839Z,79.74
2023-01-29T06:58:34.443Z,78.76
2023-01-29T07:01:35.626Z,78.86
2023-01-29T07:04:22.106Z,78.75
2023-01-29T07:07:14.818Z,77.75
2023-01-29T07:10:08.952Z,77.57
2023-01-29T07:13:03.237Z,77.17
2023-01-29T07:15:46.243Z,77.69
2023-01-29T07:18:39.155Z,77.72
2023-01-29T07:21:32.440Z,77.35
2023-01-29T07:24:25.412Z,77.14
2023-01-29T07:27:10.860Z,75.89
2023-01-29T07:30:03.344Z,76.21
2023-01-29T07:32:56.211Z,76.01
2023-01-29T07:35:44.921Z,76.38
2023-01-29T07:38:28.723Z,75.58
2023-01-29T07:41:22.058Z,75.76
2023-01-29T07:44:15.160Z,74.91
2023-01-29T07:47:01.926Z,74.48
2023-01-29T07:49:54.695Z,75.57
2023-01-29T07:52:33.272Z,76.12
2023-01-29T07:55:17.520Z,76.07
2023-01-29T07:58:10.429Z,75.65
2023-01-29T08:00:57.343Z,74.94
2023-01-29T08:03:51.343Z,74.40
2023-01-29T08:06:43.980Z,74.18
2023-01-29T08:09:37.048Z,73.78
2023-01-29T08:12:29.916Z,72.75
2023-01-29T08:15:22.636Z,73.15
2023-01-29T08:18:14.784Z,73.24
2023-01-29T08:21:07.847Z,74.22
2023-01-29T08:23:54.636Z,74.74
2023-01-29T08:26:47.345Z,74.61
2023-01-29T08:29:40.037Z,75.18
2023-01-29T08:32:33.173Z,75.19
2023-01-29T08:35:26.203Z,74.77
2023-01-29T08:38:19.209Z,74.93
2023-01-29T08:41:12.003Z,74.45
2023-01-29T08:44:04.853Z,73.81
2023-01-29T08:46:56.551Z,73.16
2023-01-29T08:49:49.252Z,72.22
2023-01-29T08:52:29.357Z,72.20
2023-01-29T08:55:22.171Z,71.27
2023-01-29T08:58:16.397Z,70.68
2023-01-29T09:01:13.999Z,70.67
2023-01-29T09:04:07.481Z,69.23
2023-01-29T09:07:08.629Z,68.84
2023-01-29T09:10:15.482Z,68.72
2023-01-29T09:13:08.345Z,67.83
2023-01-29T09:16:03.825Z,68.31
2023-01-29T09:18:57.368Z,67.52
2023-01-29T09:21:50.788Z,67.85
2023-01-29T09:24:43.548Z,68.19
2023-01-29T09:27:36.579Z,67.59
2023-01-29T09:30:32.313Z,67.95
2023-01-29T09:33:26.271Z,68.37
2023-01-29T09:36:18.068Z,68.49
2023-01-29T09:39:04.984Z,68.39
2023-01-29T09:41:53.148Z,68.94
2023-01-29T09:45:01.729Z,67.73
2023-01-29T09:47:57.245Z,67.33
2023-01-29T09:50:53.023Z,66.98
2023-01-29T09:53:53.957Z,66.44
2023-01-29T09:56:49.899Z,65.42
2023-01-29T09:59:35.527Z,65.82
2023-01-29T10:02:52.592Z,65.22
2023-01-29T10:06:34.844Z,64.30
2023-01-29T10:10:02.349Z,65.49
2023-01-29T10:13:18.863Z,65.47
2023-01-29T10:16:19.943Z,65.66
2023-01-29T10:19:38.250Z,65.84
2023-01-29T10:22:47.351Z,65.54
2023-01-29T10:25:38.309Z,64.58
2023-01-29T10:28:36.615Z,64.75
2023-01-29T10:31:33.029Z,63.75
2023-01-29T10:34:31.366Z,64.10
2023-01-29T10:37:32.514Z,64.79
2023-01-29T10:40:28.736Z,64.91
2023-01-29T10:43:19.328Z,65.61
2023-01-29T10:46:29.552Z,66.26
2023-01-29T10:49:58.897Z,66.26
2023-01-29T10:53:20.096Z,66.37
2023-01-29T10:56:40.440Z,67.01
2023-01-29T10:59:53.454Z,67.00
2023-01-29T11:02:51.827Z,66.41
2023-01-29T11:05:51.729Z,66.07
2023-01-29T11:08:49.764Z,64.41
2023-01-29T11:11:49.164Z,64.17
2023-01-29T11:14:47.241Z,63.35
2023-01-29T11:17:40.840Z,63.40
2023-01-29T11:20:32.048Z,63.21
2023-01-29T11:23:31.413Z,63.90
2023-01-29T11:26:25.045Z,64.22
2023-01-29T11:29:39.052Z,62.71
2023-01-29T11:32:36.775Z,61.81
2023-01-29T11:35:30.767Z,62.46
2023-01-29T11:38:27.730Z,62.04
2023-01-29T11:41:22.546Z,62.61
2023-01-29T11:44:31.822Z,61.62
2023-01-29T11:47:28.676Z,62.27
2023-01-29T11:50:26.297Z,63.47
2023-01-29T11:53:35.459Z,63.89
2023-01-29T11:56:31.268Z,64.58
2023-01-29T11:59:49.046Z,64.69
2023-01-29T12:02:47.261Z,64.95
2023-01-29T12:05:42.191Z,65.11
2023-01-29T12:08:39.906Z,65.17
2023-01-29T12:11:34.583Z,65.32
2023-01-29T12:14:33.648Z,66.15
2023-01-29T12:17:29.128Z,65.72
2023-01-29T12:20:20.108Z,65.46
2023-01-29T12:23:30.994Z,65.70
2023-01-29T12:26:32.437Z,65.43
2023-01-29T12:29:32.003Z,64.06
2023-01-29T12:32:34.232Z,63.38
2023-01-29T12:35:25.643Z,63.93
2023-01-29T12:38:22.003Z,63.57
2023-01-29T12:41:45.098Z,62.86
2023-01-29T12:44:42.383Z,63.25
2023-01-29T12:47:39.501Z,63.26
2023-01-29T12:50:29.079Z,63.68
2023-01-29T12:53:30.992Z,63.55
2023-01-29T12:56:33.151Z,63.61
2023-01-29T12:59:29.382Z,64.03
2023-01-29T13:02:32.183Z,63.60
2023-01-29T13:05:29.665Z,63.03
2023-01-29T13:08:26.351Z,63.38
2023-01-29T13:11:23.715Z,63.51
2023-01-29T13:14:15.697Z,63.41
2023-01-29T13:17:09.110Z,64.86
2023-01-29T13:20:06.739Z,64.73
2023-01-29T13:23:06.130Z,65.19
2023-01-29T13:25:55.387Z,65.04
2023-01-29T13:28:46.191Z,65.85
2023-01-29T13:31:46.642Z,65.35
2023-01-29T13:34:28.514Z,65.80
2023-01-29T13:37:20.143Z,65.84
2023-01-29T13:40:04.166Z,66.08
2023-01-29T13:42:53.246Z,66.40
2023-01-29T13:45:48.691Z,66.59
2023-01-29T13:48:47.302Z,66.70
2023-01-29T13:51:41.424Z,67.54
2023-01-29T13:54:34.710Z,67.02
2023-01-29T13:57:54.782Z,66.99
2023-01-29T14:00:52.848Z,67.73
2023-01-29T14:04:03.757Z,68.24
2023-01-29T14:06:59.996Z,68.75
2023-01-29T14:10:14.802Z,68.74
2023-01-29T14:13:32.202Z,68.42
2023-01-29T14:16:37.678Z,68.67
2023-01-29T14:19:25.767Z,68.56
2023-01-29T14:22:24.993Z,68.32
2023-01-29T14:25:22.924Z,68.43
2023-01-29T14:28:21.600Z,68.96
2023-01-29T14:31:07.712Z,69.68
2023-01-29T14:33:50.701Z,69.98
2023-01-29T14:36:46.618Z,70.19
2023-01-29T14:39:47.511Z,70.56
2023-01-29T14:42:50.251Z,70.96
2023-01-29T14:45:32.014Z,70.92
2023-01-29T14:48:48.708Z,71.01
2023-01-29T14:51:46.753Z,71.15
2023-01-29T14:54:30.639Z,71.43
2023-01-29T14:57:24.959Z,71.22
2023-01-29T15:00:17.347Z,71.43
2023-01-29T15:03:23.101Z,71.65
2023-01-29T15:06:24.536Z,71.80
2023-01-29T15:09:03.876Z,71.90
2023-01-29T15:11:59.013Z,72.14
2023-01-29T15:14:53.681Z,72.13
2023-01-29T15:17:32.399Z,72.39
2023-01-29T15:20:35.291Z,72.48
2023-01-29T15:23:27.661Z,72.47
2023-01-29T15:26:27.019Z,72.52
2023-01-29T15:29:28.314Z,72.59
2023-01-29T15:32:29.866Z,72.82
2023-01-29T15:35:31.575Z,72.73
2023-01-29T15:38:26.422Z,72.67
2023-01-29T15:41:23.836Z,72.57
2023-01-29T15:44:19.642Z,72.60
2023-01-29T15:47:14.495Z,72.57
2023-01-29T15:49:52.241Z,72.37
2023-01-29T15:52:36.421Z,72.72
2023-01-29T15:55:16.316Z,73.37
2023-01-29T15:57:54.380Z,73.43
2023-01-29T16:00:54.854Z,73.59
2023-01-29T16:03:30.846Z,73.86
2023-01-29T16:06:17.131Z,74.01
2023-01-29T16:08:53.545Z,73.99
2023-01-29T16:11:49.243Z,74.50
2023-01-29T16:14:44.874Z,74.76
2023-01-29T16:17:41.948Z,74.76
2023-01-29T16:20:42.624Z,74.76
2023-01-29T16:23:46.356Z,74.88
2023-01-29T16:26:36.526Z,74.98
2023-01-29T16:29:34.447Z,74.80
2023-01-29T16:32:26.059Z,74.92
2023-01-29T16:35:19.895Z,75.48
2023-01-29T16:38:29.394Z,75.79
2023-01-29T16:41:33.705Z,76.05
2023-01-29T16:44:37.690Z,76.12
2023-01-29T16:47:25.940Z,76.09
2023-01-29T16:50:40.559Z,75.93
2023-01-29T16:53:34.844Z,75.44
2023-01-29T16:56:30.161Z,75.17
2023-01-29T16:59:28.399Z,75.23
2023-01-29T17:02:23.164Z,74.86
2023-01-29T17:05:10.970Z,75.00
2023-01-29T17:07:56.738Z,75.13
2023-01-29T17:10:51.710Z,75.05
2023-01-29T17:13:39.904Z,75.39
2023-01-29T17:16:35.300Z,75.86
2023-01-29T17:19:30.179Z,76.12
2023-01-29T17:22:22.931Z,76.14
2023-01-29T17:25:18.921Z,76.18
2023-01-29T17:28:16.177Z,75.80
2023-01-29T17:31:06.623Z,75.90
2023-01-29T17:33:58.780Z,75.37
2023-01-29T17:36:51.358Z,75.36
2023-01-29T17:39:34.683Z,75.00
2023-01-29T17:42:28.890Z,74.68
2023-01-29T17:45:23.796Z,74.93
2023-01-29T17:48:19.606Z,75.12
2023-01-29T17:51:16.681Z,74.98
2023-01-29T17:54:09.603Z,74.94
2023-01-29T17:57:05.208Z,75.16
2023-01-29T17:59:58.358Z,75.48
2023-01-29T18:02:36.665Z,75.49
2023-01-29T18:05:30.209Z,75.31
2023-01-29T18:08:27.836Z,75.45
2023-01-29T18:11:19.461Z,75.22
2023-01-29T18:14:14.138Z,74.73
2023-01-29T18:17:07.592Z,74.94
2023-01-29T18:19:53.386Z,74.87
2023-01-29T18:22:46.891Z,74.65
2023-01-29T18:25:29.756Z,74.49
2023-01-29T18:28:23.187Z,74.59
2023-01-29T18:31:16.207Z,74.51
2023-01-29T18:34:03.052Z,74.68
2023-01-29T18:36:56.017Z,74.67
2023-01-29T18:39:48.896Z,74.65
2023-01-29T18:42:41.915Z,74.62
2023-01-29T18:45:27.476Z,74.79
2023-01-29T18:48:14.273Z,74.19
2023-01-29T18:51:08.928Z,74.17
2023-01-29T18:54:02.029Z,74.01
2023-01-29T18:57:08.717Z,73.71
2023-01-29T18:59:49.409Z,73.72
2023-01-29T19:02:43.166Z,73.98
2023-01-29T19:05:17.116Z,73.85
2023-01-29T19:08:10.728Z,74.15
2023-01-29T19:11:08.526Z,74.13
2023-01-29T19:14:01.339Z,74.17
2023-01-29T19:16:47.195Z,74.03
2023-01-29T19:19:40.628Z,74.12
2023-01-29T19:22:24.637Z,74.21
2023-01-29T19:25:19.694Z,74.03
2023-01-29T19:28:12.805Z,74.53
2023-01-29T19:31:01.318Z,74.31
2023-01-29T19:33:54.811Z,74.83
2023-01-29T19:36:46.381Z,74.69
2023-01-29T19:39:39.188Z,74.84
2023-01-29T19:42:25.112Z,74.69
2023-01-29T19:45:18.439Z,74.56
2023-01-29T19:48:30.372Z,74.35
2023-01-29T19:51:24.801Z,74.32
2023-01-29T19:54:10.357Z,74.21
2023-01-29T19:57:04.474Z,74.54
2023-01-29T19:59:45.839Z,74.67
2023-01-29T20:02:39.042Z,74.82
2023-01-29T20:05:37.552Z,74.82
2023-01-29T20:08:30.339Z,74.60
2023-01-29T20:11:24.928Z,74.92
2023-01-29T20:14:20.425Z,74.41
2023-01-29T20:17:13.187Z,74.45
2023-01-29T20:20:07.037Z,74.58
2023-01-29T20:23:01.557Z,74.45
2023-01-29T20:25:48.107Z,74.66
2023-01-29T20:28:31.059Z,74.76
2023-01-29T20:31:22.695Z,74.75
2023-01-29T20:34:18.414Z,75.15
2023-01-29T20:37:11.161Z,75.39
2023-01-29T20:40:02.913Z,75.19
2023-01-29T20:42:54.533Z,75.17
2023-01-29T20:45:47.277Z,75.45
2023-01-29T20:48:42.138Z,75.13
2023-01-29T20:51:23.774Z,74.97
2023-01-29T20:54:12.616Z,75.14
2023-01-29T20:57:05.532Z,75.12
2023-01-29T21:00:00.145Z,75.01
2023-01-29T21:02:52.913Z,75.09
2023-01-29T21:05:45.674Z,74.75
2023-01-29T21:08:38.885Z,75.04
2023-01-29T21:11:33.944Z,75.03
2023-01-29T21:14:26.713Z,75.03
2023-01-29T21:17:20.161Z,75.05
2023-01-29T21:20:15.177Z,75.36
2023-01-29T21:23:05.323Z,75.66
2023-01-29T21:26:05.277Z,75.94
2023-01-29T21:28:58.566Z,76.60
2023-01-29T21:31:51.447Z,77.27
2023-01-29T21:34:44.775Z,78.55
2023-01-29T21:37:20.541Z,78.67
2023-01-29T21:40:03.575Z,78.84
2023-01-29T21:43:16.145Z,78.94
2023-01-29T21:46:12.621Z,78.80
2023-01-29T21:49:05.566Z,78.88
2023-01-29T21:51:59.479Z,78.72
2023-01-29T21:54:52.268Z,78.90
2023-01-29T21:57:47.325Z,78.90
2023-01-29T22:00:40.083Z,78.85
2023-01-29T22:03:34.674Z,79.17
2023-01-29T22:06:27.513Z,79.53
2023-01-29T22:09:20.555Z,79.52
2023-01-29T22:12:13.643Z,79.84
2023-01-29T22:15:00.256Z,79.97
2023-01-29T22:17:53.072Z,80.01
2023-01-29T22:20:45.840Z,79.96
2023-01-29T22:23:21.417Z,79.98
2023-01-29T22:26:14.280Z,79.91
2023-01-29T22:29:05.879Z,79.70
2023-01-29T22:31:58.829Z,79.69
2023-01-29T22:34:51.792Z,79.55
2023-01-29T22:37:44.887Z,79.71
2023-01-29T22:40:37.955Z,79.65
2023-01-29T22:43:19.403Z,79.72
2023-01-29T22:46:14.900Z,79.66
2023-01-29T22:49:07.915Z,79.94
2023-01-29T22:52:11.605Z,80.05
2023-01-29T22:54:54.732Z,79.90
2023-01-29T22:57:51.402Z,80.10
2023-01-29T23:00:44.151Z,80.07
2023-01-29T23:03:37.258Z,80.02
2023-01-29T23:06:30.087Z,80.07
2023-01-29T23:09:22.905Z,79.94
2023-01-29T23:12:16.198Z,79.86
2023-01-29T23:15:10.292Z,79.82
2023-01-29T23:18:03.852Z,79.91
2023-01-29T23:21:01.372Z,80.27
2023-01-29T23:23:55.518Z,80.41
2023-01-29T23:27:06.320Z,80.34
2023-01-29T23:29:59.059Z,80.79
2023-01-29T23:32:51.792Z,80.80
2023-01-29T23:35:40.751Z,81.07
2023-01-29T23:38:26.533Z,81.10
2023-01-29T23:41:19.467Z,81.42
2023-01-29T23:44:12.853Z,81.52
2023-01-29T23:47:05.710Z,81.61
2023-01-29T23:50:00.857Z,81.66
2023-01-29T23:52:53.606Z,81.70
2023-01-29T23:55:56.446Z,81.93
2023-01-29T23:58:49.380Z,81.79
